sensor_id;sensor_type;location;lat;lon;timestamp;temperature;humidity
26707;DHT22;14319;49.422;10.934;2022-09-01T00:01:24;16.50;93.10
26707;DHT22;14319;49.422;10.934;2022-09-01T00:03:26;16.50;93.40
26707;DHT22;14319;49.422;10.934;2022-09-01T00:05:27;16.50;92.90
26707;DHT22;14319;49.422;10.934;2022-09-01T00:07:29;16.50;92.50
26707;DHT22;14319;49.422;10.934;2022-09-01T00:09:31;16.40;92.10
26707;DHT22;14319;49.422;10.934;2022-09-01T00:11:32;16.40;92.00
26707;DHT22;14319;49.422;10.934;2022-09-01T00:13:33;16.40;93.30
26707;DHT22;14319;49.422;10.934;2022-09-01T00:15:35;16.50;92.90
26707;DHT22;14319;49.422;10.934;2022-09-01T00:17:36;16.30;91.70
26707;DHT22;14319;49.422;10.934;2022-09-01T00:19:38;16.00;94.00
26707;DHT22;14319;49.422;10.934;2022-09-01T00:21:42;16.20;94.70
26707;DHT22;14319;49.422;10.934;2022-09-01T00:23:43;16.30;94.10
26707;DHT22;14319;49.422;10.934;2022-09-01T00:25:44;16.30;93.50
26707;DHT22;14319;49.422;10.934;2022-09-01T00:27:46;16.40;93.40
26707;DHT22;14319;49.422;10.934;2022-09-01T00:29:47;16.30;89.70
26707;DHT22;14319;49.422;10.934;2022-09-01T00:31:48;16.20;90.20
26707;DHT22;14319;49.422;10.934;2022-09-01T00:33:50;16.30;92.10
26707;DHT22;14319;49.422;10.934;2022-09-01T00:35:51;16.30;91.90
26707;DHT22;14319;49.422;10.934;2022-09-01T00:37:52;16.30;90.40
26707;DHT22;14319;49.422;10.934;2022-09-01T00:39:53;16.20;89.80
26707;DHT22;14319;49.422;10.934;2022-09-01T00:41:54;16.20;91.20
26707;DHT22;14319;49.422;10.934;2022-09-01T00:43:59;16.30;92.10
26707;DHT22;14319;49.422;10.934;2022-09-01T00:46:00;16.30;90.10
26707;DHT22;14319;49.422;10.934;2022-09-01T00:48:00;16.30;91.80
26707;DHT22;14319;49.422;10.934;2022-09-01T00:50:05;16.40;93.40
26707;DHT22;14319;49.422;10.934;2022-09-01T00:52:12;16.50;93.00
26707;DHT22;14319;49.422;10.934;2022-09-01T00:54:19;16.60;93.00
26707;DHT22;14319;49.422;10.934;2022-09-01T00:56:21;16.70;93.10
26707;DHT22;14319;49.422;10.934;2022-09-01T00:58:23;16.70;92.90
26707;DHT22;14319;49.422;10.934;2022-09-01T01:00:27;16.70;92.90
26707;DHT22;14319;49.422;10.934;2022-09-01T01:02:29;16.70;92.70
26707;DHT22;14319;49.422;10.934;2022-09-01T01:04:30;16.80;92.50
26707;DHT22;14319;49.422;10.934;2022-09-01T01:06:31;16.80;92.30
26707;DHT22;14319;49.422;10.934;2022-09-01T01:08:36;16.80;91.60
26707;DHT22;14319;49.422;10.934;2022-09-01T01:10:40;16.80;92.00
26707;DHT22;14319;49.422;10.934;2022-09-01T01:12:41;16.80;92.20
26707;DHT22;14319;49.422;10.934;2022-09-01T01:14:47;16.80;91.40
26707;DHT22;14319;49.422;10.934;2022-09-01T01:16:49;16.80;91.90
26707;DHT22;14319;49.422;10.934;2022-09-01T01:18:51;16.80;92.10
26707;DHT22;14319;49.422;10.934;2022-09-01T01:21:06;16.80;92.30
26707;DHT22;14319;49.422;10.934;2022-09-01T01:23:47;16.80;92.50
26707;DHT22;14319;49.422;10.934;2022-09-01T01:25:55;16.80;92.10
26707;DHT22;14319;49.422;10.934;2022-09-01T01:28:10;16.80;92.40
26707;DHT22;14319;49.422;10.934;2022-09-01T01:30:12;16.80;92.20
26707;DHT22;14319;49.422;10.934;2022-09-01T01:32:13;16.70;91.70
26707;DHT22;14319;49.422;10.934;2022-09-01T01:34:14;16.60;91.90
26707;DHT22;14319;49.422;10.934;2022-09-01T01:36:23;16.60;93.00
26707;DHT22;14319;49.422;10.934;2022-09-01T01:38:34;16.50;92.40
26707;DHT22;14319;49.422;10.934;2022-09-01T01:40:37;16.40;93.00
26707;DHT22;14319;49.422;10.934;2022-09-01T01:42:38;16.40;93.90
26707;DHT22;14319;49.422;10.934;2022-09-01T01:44:38;16.30;94.10
26707;DHT22;14319;49.422;10.934;2022-09-01T01:46:43;16.10;95.10
26707;DHT22;14319;49.422;10.934;2022-09-01T01:48:44;16.00;95.80
26707;DHT22;14319;49.422;10.934;2022-09-01T01:50:45;15.80;96.00
26707;DHT22;14319;49.422;10.934;2022-09-01T01:52:48;15.70;97.10
26707;DHT22;14319;49.422;10.934;2022-09-01T01:54:49;15.70;96.10
26707;DHT22;14319;49.422;10.934;2022-09-01T01:56:50;15.70;96.70
26707;DHT22;14319;49.422;10.934;2022-09-01T01:58:52;15.80;97.10
26707;DHT22;14319;49.422;10.934;2022-09-01T02:00:55;15.70;96.30
26707;DHT22;14319;49.422;10.934;2022-09-01T02:02:57;15.80;95.50
26707;DHT22;14319;49.422;10.934;2022-09-01T02:04:58;15.80;95.00
26707;DHT22;14319;49.422;10.934;2022-09-01T02:06:59;15.70;95.60
26707;DHT22;14319;49.422;10.934;2022-09-01T02:09:00;15.70;96.30
26707;DHT22;14319;49.422;10.934;2022-09-01T02:11:04;15.70;96.50
26707;DHT22;14319;49.422;10.934;2022-09-01T02:13:05;15.70;95.10
26707;DHT22;14319;49.422;10.934;2022-09-01T02:15:07;15.70;94.70
26707;DHT22;14319;49.422;10.934;2022-09-01T02:17:08;15.60;94.60
26707;DHT22;14319;49.422;10.934;2022-09-01T02:19:10;15.60;95.60
26707;DHT22;14319;49.422;10.934;2022-09-01T02:21:12;15.50;96.00
26707;DHT22;14319;49.422;10.934;2022-09-01T02:23:20;15.50;96.50
26707;DHT22;14319;49.422;10.934;2022-09-01T02:25:26;15.50;96.70
26707;DHT22;14319;49.422;10.934;2022-09-01T02:27:27;15.50;96.20
26707;DHT22;14319;49.422;10.934;2022-09-01T02:29:29;15.40;96.10
26707;DHT22;14319;49.422;10.934;2022-09-01T02:31:34;15.40;95.90
26707;DHT22;14319;49.422;10.934;2022-09-01T02:33:39;15.40;96.20
26707;DHT22;14319;49.422;10.934;2022-09-01T02:35:48;15.40;96.00
26707;DHT22;14319;49.422;10.934;2022-09-01T02:37:49;15.30;96.30
26707;DHT22;14319;49.422;10.934;2022-09-01T02:39:55;15.30;96.60
26707;DHT22;14319;49.422;10.934;2022-09-01T02:41:57;15.30;96.30
26707;DHT22;14319;49.422;10.934;2022-09-01T02:44:02;15.30;95.90
26707;DHT22;14319;49.422;10.934;2022-09-01T02:46:04;15.30;95.90
26707;DHT22;14319;49.422;10.934;2022-09-01T02:48:05;15.30;96.70
26707;DHT22;14319;49.422;10.934;2022-09-01T02:50:09;15.30;96.20
26707;DHT22;14319;49.422;10.934;2022-09-01T02:52:13;15.40;95.50
26707;DHT22;14319;49.422;10.934;2022-09-01T02:54:15;15.30;94.40
26707;DHT22;14319;49.422;10.934;2022-09-01T02:56:19;15.20;95.70
26707;DHT22;14319;49.422;10.934;2022-09-01T02:58:31;15.20;95.20
26707;DHT22;14319;49.422;10.934;2022-09-01T03:00:33;15.30;96.10
26707;DHT22;14319;49.422;10.934;2022-09-01T03:02:37;15.30;96.40
26707;DHT22;14319;49.422;10.934;2022-09-01T03:04:38;15.30;96.10
26707;DHT22;14319;49.422;10.934;2022-09-01T03:06:39;15.30;96.80
26707;DHT22;14319;49.422;10.934;2022-09-01T03:08:40;15.30;96.20
26707;DHT22;14319;49.422;10.934;2022-09-01T03:10:43;15.30;95.50
26707;DHT22;14319;49.422;10.934;2022-09-01T03:12:44;15.20;96.00
26707;DHT22;14319;49.422;10.934;2022-09-01T03:14:45;15.20;96.40
26707;DHT22;14319;49.422;10.934;2022-09-01T03:16:45;15.20;96.50
26707;DHT22;14319;49.422;10.934;2022-09-01T03:18:47;15.30;96.60
26707;DHT22;14319;49.422;10.934;2022-09-01T03:20:49;15.30;95.90
26707;DHT22;14319;49.422;10.934;2022-09-01T03:22:50;15.30;95.80
26707;DHT22;14319;49.422;10.934;2022-09-01T03:24:54;15.40;95.90
26707;DHT22;14319;49.422;10.934;2022-09-01T03:26:55;15.40;95.50
26707;DHT22;14319;49.422;10.934;2022-09-01T03:28:57;15.40;95.50
26707;DHT22;14319;49.422;10.934;2022-09-01T03:30:58;15.40;95.00
26707;DHT22;14319;49.422;10.934;2022-09-01T03:33:00;15.40;95.30
26707;DHT22;14319;49.422;10.934;2022-09-01T03:35:03;15.30;94.50
26707;DHT22;14319;49.422;10.934;2022-09-01T03:37:04;15.30;95.20
26707;DHT22;14319;49.422;10.934;2022-09-01T03:39:09;15.20;95.00
26707;DHT22;14319;49.422;10.934;2022-09-01T03:41:10;15.20;95.00
26707;DHT22;14319;49.422;10.934;2022-09-01T03:43:12;15.20;95.40
26707;DHT22;14319;49.422;10.934;2022-09-01T03:45:15;15.20;95.50
26707;DHT22;14319;49.422;10.934;2022-09-01T03:47:20;15.20;95.50
26707;DHT22;14319;49.422;10.934;2022-09-01T03:49:21;15.10;95.20
26707;DHT22;14319;49.422;10.934;2022-09-01T03:51:25;15.00;94.80
26707;DHT22;14319;49.422;10.934;2022-09-01T03:53:26;14.90;95.40
26707;DHT22;14319;49.422;10.934;2022-09-01T03:55:32;14.90;95.90
26707;DHT22;14319;49.422;10.934;2022-09-01T03:57:34;14.80;95.80
26707;DHT22;14319;49.422;10.934;2022-09-01T03:59:37;14.80;96.50
26707;DHT22;14319;49.422;10.934;2022-09-01T04:01:43;14.80;96.00
26707;DHT22;14319;49.422;10.934;2022-09-01T04:03:46;14.80;96.50
26707;DHT22;14319;49.422;10.934;2022-09-01T04:05:52;14.70;96.60
26707;DHT22;14319;49.422;10.934;2022-09-01T04:07:55;14.70;96.50
26707;DHT22;14319;49.422;10.934;2022-09-01T04:09:56;14.70;95.90
26707;DHT22;14319;49.422;10.934;2022-09-01T04:11:57;14.60;96.30
26707;DHT22;14319;49.422;10.934;2022-09-01T04:13:59;14.60;96.40
26707;DHT22;14319;49.422;10.934;2022-09-01T04:16:00;14.50;95.80
26707;DHT22;14319;49.422;10.934;2022-09-01T04:18:00;14.50;96.00
26707;DHT22;14319;49.422;10.934;2022-09-01T04:20:10;14.50;96.30
26707;DHT22;14319;49.422;10.934;2022-09-01T04:22:11;14.40;97.00
26707;DHT22;14319;49.422;10.934;2022-09-01T04:24:15;14.50;96.80
26707;DHT22;14319;49.422;10.934;2022-09-01T04:26:19;14.40;96.90
26707;DHT22;14319;49.422;10.934;2022-09-01T04:28:29;14.40;96.50
26707;DHT22;14319;49.422;10.934;2022-09-01T04:30:30;14.40;96.60
26707;DHT22;14319;49.422;10.934;2022-09-01T04:32:33;14.40;96.10
26707;DHT22;14319;49.422;10.934;2022-09-01T04:34:38;14.40;96.30
26707;DHT22;14319;49.422;10.934;2022-09-01T04:36:41;14.40;96.60
26707;DHT22;14319;49.422;10.934;2022-09-01T04:38:43;14.30;97.00
26707;DHT22;14319;49.422;10.934;2022-09-01T04:40:44;14.30;97.00
26707;DHT22;14319;49.422;10.934;2022-09-01T04:42:45;14.40;96.80
26707;DHT22;14319;49.422;10.934;2022-09-01T04:44:46;14.40;96.40
26707;DHT22;14319;49.422;10.934;2022-09-01T04:46:48;14.40;95.60
26707;DHT22;14319;49.422;10.934;2022-09-01T04:48:51;14.40;96.30
26707;DHT22;14319;49.422;10.934;2022-09-01T04:50:53;14.50;96.50
26707;DHT22;14319;49.422;10.934;2022-09-01T04:53:01;14.60;96.50
26707;DHT22;14319;49.422;10.934;2022-09-01T04:55:06;14.60;95.90
26707;DHT22;14319;49.422;10.934;2022-09-01T04:57:08;14.80;96.10
26707;DHT22;14319;49.422;10.934;2022-09-01T04:59:13;14.80;95.50
26707;DHT22;14319;49.422;10.934;2022-09-01T05:01:17;14.70;95.10
26707;DHT22;14319;49.422;10.934;2022-09-01T05:03:18;14.70;95.10
26707;DHT22;14319;49.422;10.934;2022-09-01T05:05:45;14.70;95.10
26707;DHT22;14319;49.422;10.934;2022-09-01T05:07:46;14.70;95.90
26707;DHT22;14319;49.422;10.934;2022-09-01T05:09:52;14.80;95.50
26707;DHT22;14319;49.422;10.934;2022-09-01T05:12:16;14.90;95.30
26707;DHT22;14319;49.422;10.934;2022-09-01T05:14:21;15.00;95.20
26707;DHT22;14319;49.422;10.934;2022-09-01T05:16:24;15.00;94.90
26707;DHT22;14319;49.422;10.934;2022-09-01T05:18:25;15.00;94.90
26707;DHT22;14319;49.422;10.934;2022-09-01T05:20:27;15.00;94.90
26707;DHT22;14319;49.422;10.934;2022-09-01T05:22:29;15.00;94.80
26707;DHT22;14319;49.422;10.934;2022-09-01T05:24:33;15.00;93.50
26707;DHT22;14319;49.422;10.934;2022-09-01T05:26:38;14.90;94.10
26707;DHT22;14319;49.422;10.934;2022-09-01T05:28:40;14.90;94.80
26707;DHT22;14319;49.422;10.934;2022-09-01T05:30:41;14.80;94.30
26707;DHT22;14319;49.422;10.934;2022-09-01T05:32:43;14.60;96.50
26707;DHT22;14319;49.422;10.934;2022-09-01T05:34:48;14.70;97.80
26707;DHT22;14319;49.422;10.934;2022-09-01T05:36:54;14.80;97.40
26707;DHT22;14319;49.422;10.934;2022-09-01T05:38:56;14.80;95.90
26707;DHT22;14319;49.422;10.934;2022-09-01T05:41:00;14.80;95.60
26707;DHT22;14319;49.422;10.934;2022-09-01T05:43:03;14.70;96.10
26707;DHT22;14319;49.422;10.934;2022-09-01T05:45:04;14.60;94.00
26707;DHT22;14319;49.422;10.934;2022-09-01T05:47:06;14.40;95.90
26707;DHT22;14319;49.422;10.934;2022-09-01T05:49:10;14.20;98.50
26707;DHT22;14319;49.422;10.934;2022-09-01T05:51:19;14.30;98.70
26707;DHT22;14319;49.422;10.934;2022-09-01T05:53:21;14.40;98.10
26707;DHT22;14319;49.422;10.934;2022-09-01T05:55:24;14.40;97.20
26707;DHT22;14319;49.422;10.934;2022-09-01T05:57:27;14.50;97.70
26707;DHT22;14319;49.422;10.934;2022-09-01T05:59:28;14.60;97.60
26707;DHT22;14319;49.422;10.934;2022-09-01T06:01:53;14.70;96.20
26707;DHT22;14319;49.422;10.934;2022-09-01T06:03:56;14.90;95.90
26707;DHT22;14319;49.422;10.934;2022-09-01T06:06:04;14.80;94.20
26707;DHT22;14319;49.422;10.934;2022-09-01T06:08:08;14.70;95.20
26707;DHT22;14319;49.422;10.934;2022-09-01T06:10:10;14.80;95.80
26707;DHT22;14319;49.422;10.934;2022-09-01T06:12:14;14.80;94.60
26707;DHT22;14319;49.422;10.934;2022-09-01T06:14:20;14.80;94.90
26707;DHT22;14319;49.422;10.934;2022-09-01T06:16:23;14.70;95.60
26707;DHT22;14319;49.422;10.934;2022-09-01T06:18:24;14.80;96.00
26707;DHT22;14319;49.422;10.934;2022-09-01T06:20:31;14.80;96.80
26707;DHT22;14319;49.422;10.934;2022-09-01T06:22:33;14.80;96.20
26707;DHT22;14319;49.422;10.934;2022-09-01T06:24:33;15.00;95.30
26707;DHT22;14319;49.422;10.934;2022-09-01T06:26:36;15.00;94.90
26707;DHT22;14319;49.422;10.934;2022-09-01T06:28:38;15.20;95.60
26707;DHT22;14319;49.422;10.934;2022-09-01T06:30:41;15.40;96.10
26707;DHT22;14319;49.422;10.934;2022-09-01T06:32:44;15.60;94.60
26707;DHT22;14319;49.422;10.934;2022-09-01T06:34:45;15.70;91.30
26707;DHT22;14319;49.422;10.934;2022-09-01T06:36:49;15.80;92.10
26707;DHT22;14319;49.422;10.934;2022-09-01T06:38:53;15.90;90.40
26707;DHT22;14319;49.422;10.934;2022-09-01T06:41:04;16.00;90.40
26707;DHT22;14319;49.422;10.934;2022-09-01T06:43:11;16.10;90.80
26707;DHT22;14319;49.422;10.934;2022-09-01T06:45:22;16.10;87.80
26707;DHT22;14319;49.422;10.934;2022-09-01T06:47:23;16.10;88.00
26707;DHT22;14319;49.422;10.934;2022-09-01T06:49:24;16.20;87.50
26707;DHT22;14319;49.422;10.934;2022-09-01T06:51:33;16.20;89.00
26707;DHT22;14319;49.422;10.934;2022-09-01T06:53:34;16.10;86.50
26707;DHT22;14319;49.422;10.934;2022-09-01T06:55:39;16.10;87.90
26707;DHT22;14319;49.422;10.934;2022-09-01T06:57:42;16.10;85.80
26707;DHT22;14319;49.422;10.934;2022-09-01T06:59:45;16.10;86.20
26707;DHT22;14319;49.422;10.934;2022-09-01T07:01:47;16.20;85.50
26707;DHT22;14319;49.422;10.934;2022-09-01T07:03:54;16.20;85.40
26707;DHT22;14319;49.422;10.934;2022-09-01T07:06:23;16.30;86.80
26707;DHT22;14319;49.422;10.934;2022-09-01T07:08:45;16.40;84.90
26707;DHT22;14319;49.422;10.934;2022-09-01T07:11:00;16.40;87.30
26707;DHT22;14319;49.422;10.934;2022-09-01T07:13:01;16.50;86.30
26707;DHT22;14319;49.422;10.934;2022-09-01T07:15:03;16.50;84.60
26707;DHT22;14319;49.422;10.934;2022-09-01T07:17:04;16.50;85.40
26707;DHT22;14319;49.422;10.934;2022-09-01T07:19:08;16.50;85.20
26707;DHT22;14319;49.422;10.934;2022-09-01T07:21:24;16.60;85.50
26707;DHT22;14319;49.422;10.934;2022-09-01T07:23:25;16.60;83.80
26707;DHT22;14319;49.422;10.934;2022-09-01T07:25:28;16.60;84.50
26707;DHT22;14319;49.422;10.934;2022-09-01T07:27:40;16.70;84.30
26707;DHT22;14319;49.422;10.934;2022-09-01T07:29:43;16.70;84.70
26707;DHT22;14319;49.422;10.934;2022-09-01T07:31:45;16.80;84.30
26707;DHT22;14319;49.422;10.934;2022-09-01T07:33:49;16.80;83.60
26707;DHT22;14319;49.422;10.934;2022-09-01T07:35:50;16.80;83.90
26707;DHT22;14319;49.422;10.934;2022-09-01T07:37:54;16.80;86.20
26707;DHT22;14319;49.422;10.934;2022-09-01T07:39:55;16.90;85.90
26707;DHT22;14319;49.422;10.934;2022-09-01T07:42:17;17.00;84.60
26707;DHT22;14319;49.422;10.934;2022-09-01T07:44:38;17.10;84.60
26707;DHT22;14319;49.422;10.934;2022-09-01T07:47:07;17.10;82.40
26707;DHT22;14319;49.422;10.934;2022-09-01T07:49:09;17.20;84.10
26707;DHT22;14319;49.422;10.934;2022-09-01T07:51:11;17.20;84.20
26707;DHT22;14319;49.422;10.934;2022-09-01T07:53:17;17.20;84.10
26707;DHT22;14319;49.422;10.934;2022-09-01T07:55:18;17.30;83.90
26707;DHT22;14319;49.422;10.934;2022-09-01T07:57:18;17.40;82.40
26707;DHT22;14319;49.422;10.934;2022-09-01T07:59:22;17.30;82.10
26707;DHT22;14319;49.422;10.934;2022-09-01T08:01:28;17.30;81.40
26707;DHT22;14319;49.422;10.934;2022-09-01T08:03:29;17.20;81.70
26707;DHT22;14319;49.422;10.934;2022-09-01T08:05:30;17.20;83.90
26707;DHT22;14319;49.422;10.934;2022-09-01T08:07:32;17.20;83.60
26707;DHT22;14319;49.422;10.934;2022-09-01T08:09:35;17.30;82.50
26707;DHT22;14319;49.422;10.934;2022-09-01T08:11:37;17.30;82.60
26707;DHT22;14319;49.422;10.934;2022-09-01T08:13:39;17.20;82.50
26707;DHT22;14319;49.422;10.934;2022-09-01T08:15:40;17.20;81.00
26707;DHT22;14319;49.422;10.934;2022-09-01T08:17:42;17.20;82.00
26707;DHT22;14319;49.422;10.934;2022-09-01T08:19:45;17.30;81.90
26707;DHT22;14319;49.422;10.934;2022-09-01T08:21:53;17.20;81.50
26707;DHT22;14319;49.422;10.934;2022-09-01T08:24:08;17.20;81.70
26707;DHT22;14319;49.422;10.934;2022-09-01T08:26:12;17.20;80.10
26707;DHT22;14319;49.422;10.934;2022-09-01T08:28:14;17.40;81.90
26707;DHT22;14319;49.422;10.934;2022-09-01T08:30:17;17.40;81.40
26707;DHT22;14319;49.422;10.934;2022-09-01T08:32:18;17.30;81.20
26707;DHT22;14319;49.422;10.934;2022-09-01T08:34:20;17.30;81.30
26707;DHT22;14319;49.422;10.934;2022-09-01T08:36:22;17.30;83.20
26707;DHT22;14319;49.422;10.934;2022-09-01T08:38:22;17.30;81.40
26707;DHT22;14319;49.422;10.934;2022-09-01T08:40:24;17.40;82.90
26707;DHT22;14319;49.422;10.934;2022-09-01T08:42:47;17.40;81.60
26707;DHT22;14319;49.422;10.934;2022-09-01T08:45:21;17.40;79.70
26707;DHT22;14319;49.422;10.934;2022-09-01T08:47:23;17.50;81.50
26707;DHT22;14319;49.422;10.934;2022-09-01T08:49:25;17.50;80.90
26707;DHT22;14319;49.422;10.934;2022-09-01T08:51:51;17.70;78.70
26707;DHT22;14319;49.422;10.934;2022-09-01T08:54:09;17.90;79.00
26707;DHT22;14319;49.422;10.934;2022-09-01T08:56:17;17.90;76.80
26707;DHT22;14319;49.422;10.934;2022-09-01T08:58:19;18.00;75.80
26707;DHT22;14319;49.422;10.934;2022-09-01T09:00:43;18.00;78.20
26707;DHT22;14319;49.422;10.934;2022-09-01T09:05:07;18.30;78.00
26707;DHT22;14319;49.422;10.934;2022-09-01T09:07:35;18.40;76.10
26707;DHT22;14319;49.422;10.934;2022-09-01T09:10:04;18.40;78.10
26707;DHT22;14319;49.422;10.934;2022-09-01T09:12:32;18.60;77.20
26707;DHT22;14319;49.422;10.934;2022-09-01T09:15:32;18.80;76.90
26707;DHT22;14319;49.422;10.934;2022-09-01T09:17:28;18.80;73.60
26707;DHT22;14319;49.422;10.934;2022-09-01T09:19:35;19.00;76.00
26707;DHT22;14319;49.422;10.934;2022-09-01T09:21:41;19.10;75.40
26707;DHT22;14319;49.422;10.934;2022-09-01T09:23:47;19.10;72.50
26707;DHT22;14319;49.422;10.934;2022-09-01T09:25:49;19.10;75.00
26707;DHT22;14319;49.422;10.934;2022-09-01T09:27:51;19.20;73.20
26707;DHT22;14319;49.422;10.934;2022-09-01T09:29:54;19.30;73.40
26707;DHT22;14319;49.422;10.934;2022-09-01T09:32:05;19.40;74.70
26707;DHT22;14319;49.422;10.934;2022-09-01T09:34:32;19.60;74.40
26707;DHT22;14319;49.422;10.934;2022-09-01T09:36:35;19.60;73.60
26707;DHT22;14319;49.422;10.934;2022-09-01T09:38:36;19.60;73.60
26707;DHT22;14319;49.422;10.934;2022-09-01T09:40:37;19.60;75.40
26707;DHT22;14319;49.422;10.934;2022-09-01T09:42:39;19.80;73.20
26707;DHT22;14319;49.422;10.934;2022-09-01T09:44:47;19.80;73.10
26707;DHT22;14319;49.422;10.934;2022-09-01T09:46:50;19.80;71.90
26707;DHT22;14319;49.422;10.934;2022-09-01T09:49:11;19.90;71.70
26707;DHT22;14319;49.422;10.934;2022-09-01T09:51:21;19.90;74.60
26707;DHT22;14319;49.422;10.934;2022-09-01T09:53:27;19.80;73.10
26707;DHT22;14319;49.422;10.934;2022-09-01T09:55:28;19.80;74.70
26707;DHT22;14319;49.422;10.934;2022-09-01T09:57:30;19.70;75.30
26707;DHT22;14319;49.422;10.934;2022-09-01T09:59:36;19.70;73.20
26707;DHT22;14319;49.422;10.934;2022-09-01T10:01:38;19.70;74.10
26707;DHT22;14319;49.422;10.934;2022-09-01T10:03:43;19.60;75.60
26707;DHT22;14319;49.422;10.934;2022-09-01T10:05:46;19.60;76.20
26707;DHT22;14319;49.422;10.934;2022-09-01T10:07:48;19.70;74.00
26707;DHT22;14319;49.422;10.934;2022-09-01T10:09:50;19.70;74.80
26707;DHT22;14319;49.422;10.934;2022-09-01T10:11:53;19.80;74.10
26707;DHT22;14319;49.422;10.934;2022-09-01T10:13:55;19.90;74.20
26707;DHT22;14319;49.422;10.934;2022-09-01T10:16:02;19.90;74.50
26707;DHT22;14319;49.422;10.934;2022-09-01T10:18:08;19.90;73.30
26707;DHT22;14319;49.422;10.934;2022-09-01T10:20:18;20.00;75.20
26707;DHT22;14319;49.422;10.934;2022-09-01T10:22:21;20.10;71.30
26707;DHT22;14319;49.422;10.934;2022-09-01T10:24:31;20.20;73.40
26707;DHT22;14319;49.422;10.934;2022-09-01T10:26:37;20.40;71.40
26707;DHT22;14319;49.422;10.934;2022-09-01T10:28:47;20.50;70.20
26707;DHT22;14319;49.422;10.934;2022-09-01T10:30:52;20.60;69.30
26707;DHT22;14319;49.422;10.934;2022-09-01T10:32:56;20.70;70.00
26707;DHT22;14319;49.422;10.934;2022-09-01T10:34:58;20.80;69.80
26707;DHT22;14319;49.422;10.934;2022-09-01T10:37:00;20.90;69.20
26707;DHT22;14319;49.422;10.934;2022-09-01T10:39:02;20.90;69.70
26707;DHT22;14319;49.422;10.934;2022-09-01T10:41:03;20.90;73.70
26707;DHT22;14319;49.422;10.934;2022-09-01T10:43:33;20.90;68.60
26707;DHT22;14319;49.422;10.934;2022-09-01T10:45:37;20.90;70.50
26707;DHT22;14319;49.422;10.934;2022-09-01T10:47:39;20.90;70.10
26707;DHT22;14319;49.422;10.934;2022-09-01T10:51:47;20.80;71.70
26707;DHT22;14319;49.422;10.934;2022-09-01T10:53:49;20.90;71.90
26707;DHT22;14319;49.422;10.934;2022-09-01T10:56:19;20.90;73.70
26707;DHT22;14319;49.422;10.934;2022-09-01T11:00:42;21.10;68.80
26707;DHT22;14319;49.422;10.934;2022-09-01T11:05:15;21.40;68.60
26707;DHT22;14319;49.422;10.934;2022-09-01T11:09:45;21.50;63.80
26707;DHT22;14319;49.422;10.934;2022-09-01T11:13:59;21.60;67.10
26707;DHT22;14319;49.422;10.934;2022-09-01T11:16:30;21.80;65.80
26707;DHT22;14319;49.422;10.934;2022-09-01T11:18:31;21.90;63.10
26707;DHT22;14319;49.422;10.934;2022-09-01T11:20:38;21.90;64.80
26707;DHT22;14319;49.422;10.934;2022-09-01T11:22:45;22.00;64.30
26707;DHT22;14319;49.422;10.934;2022-09-01T11:25:05;22.00;63.20
26707;DHT22;14319;49.422;10.934;2022-09-01T11:27:11;22.10;61.70
26707;DHT22;14319;49.422;10.934;2022-09-01T11:31:50;22.00;61.00
26707;DHT22;14319;49.422;10.934;2022-09-01T11:34:01;21.90;65.40
26707;DHT22;14319;49.422;10.934;2022-09-01T11:36:30;22.00;64.50
26707;DHT22;14319;49.422;10.934;2022-09-01T11:38:42;22.20;61.50
26707;DHT22;14319;49.422;10.934;2022-09-01T11:40:54;22.00;61.70
26707;DHT22;14319;49.422;10.934;2022-09-01T11:42:56;22.10;61.80
26707;DHT22;14319;49.422;10.934;2022-09-01T11:45:02;22.30;62.10
26707;DHT22;14319;49.422;10.934;2022-09-01T11:47:14;22.10;61.20
26707;DHT22;14319;49.422;10.934;2022-09-01T11:51:23;22.30;60.60
26707;DHT22;14319;49.422;10.934;2022-09-01T11:53:25;22.40;60.20
26707;DHT22;14319;49.422;10.934;2022-09-01T11:55:46;22.30;60.00
26707;DHT22;14319;49.422;10.934;2022-09-01T11:57:48;22.50;60.40
26707;DHT22;14319;49.422;10.934;2022-09-01T11:59:49;22.60;60.40
26707;DHT22;14319;49.422;10.934;2022-09-01T12:01:56;22.60;60.20
26707;DHT22;14319;49.422;10.934;2022-09-01T12:03:57;22.60;60.30
26707;DHT22;14319;49.422;10.934;2022-09-01T12:06:25;22.70;60.70
26707;DHT22;14319;49.422;10.934;2022-09-01T12:08:31;22.70;59.50
26707;DHT22;14319;49.422;10.934;2022-09-01T12:10:38;22.80;61.10
26707;DHT22;14319;49.422;10.934;2022-09-01T12:12:39;22.80;60.40
26707;DHT22;14319;49.422;10.934;2022-09-01T12:14:40;22.90;61.30
26707;DHT22;14319;49.422;10.934;2022-09-01T12:16:41;23.00;58.90
26707;DHT22;14319;49.422;10.934;2022-09-01T12:18:51;23.00;56.50
26707;DHT22;14319;49.422;10.934;2022-09-01T12:20:53;22.90;60.20
26707;DHT22;14319;49.422;10.934;2022-09-01T12:22:58;22.90;59.10
26707;DHT22;14319;49.422;10.934;2022-09-01T12:24:59;22.60;55.90
26707;DHT22;14319;49.422;10.934;2022-09-01T12:27:00;22.60;60.60
26707;DHT22;14319;49.422;10.934;2022-09-01T12:29:01;22.60;60.10
26707;DHT22;14319;49.422;10.934;2022-09-01T12:31:06;22.70;59.10
26707;DHT22;14319;49.422;10.934;2022-09-01T12:33:10;22.80;59.10
26707;DHT22;14319;49.422;10.934;2022-09-01T12:35:23;22.80;60.40
26707;DHT22;14319;49.422;10.934;2022-09-01T12:37:25;22.60;60.30
26707;DHT22;14319;49.422;10.934;2022-09-01T12:39:33;22.40;59.00
26707;DHT22;14319;49.422;10.934;2022-09-01T12:41:37;22.30;58.30
26707;DHT22;14319;49.422;10.934;2022-09-01T12:43:39;22.10;59.00
26707;DHT22;14319;49.422;10.934;2022-09-01T12:45:46;22.00;61.20
26707;DHT22;14319;49.422;10.934;2022-09-01T12:47:47;21.80;60.00
26707;DHT22;14319;49.422;10.934;2022-09-01T12:49:49;21.70;59.60
26707;DHT22;14319;49.422;10.934;2022-09-01T12:54:10;21.70;61.70
26707;DHT22;14319;49.422;10.934;2022-09-01T12:56:34;21.70;60.00
26707;DHT22;14319;49.422;10.934;2022-09-01T12:58:35;21.60;59.00
26707;DHT22;14319;49.422;10.934;2022-09-01T13:01:38;21.40;60.40
26707;DHT22;14319;49.422;10.934;2022-09-01T13:03:17;21.40;59.70
26707;DHT22;14319;49.422;10.934;2022-09-01T13:05:31;21.60;61.90
26707;DHT22;14319;49.422;10.934;2022-09-01T13:07:32;21.80;59.90
26707;DHT22;14319;49.422;10.934;2022-09-01T13:09:33;21.70;60.40
26707;DHT22;14319;49.422;10.934;2022-09-01T13:11:34;21.80;58.90
26707;DHT22;14319;49.422;10.934;2022-09-01T13:13:35;21.80;58.50
26707;DHT22;14319;49.422;10.934;2022-09-01T13:15:38;21.80;57.60
26707;DHT22;14319;49.422;10.934;2022-09-01T13:17:39;21.90;59.60
26707;DHT22;14319;49.422;10.934;2022-09-01T13:19:40;21.90;58.00